KAPY

Zapata County Airport

Zapata, Texas, USA
METAR KAPY 150055Z AUTO 14010G14KT 10SM SCT075 35/16 A2983 RMK AO2 T03540166
Observed Flight Rules
Aug-15 @ 00:55 UTC (12 minutes ago) Visual Flight Rules
Wind Visibility Clouds
140° at 10 knots
 Gusting to 14 knots
10 miles
  • Scattered at 7,500' AGL
Temperatures Readings
Current 35°C / 95°F
Dewpoint 17°C / 63°F
Humidity 34%
Altimeter 29.83" Hg
Pressure 1010 hPa
Elevation 129
METAR KAPY 150055Z AUTO 14010G14KT 10SM SCT075 35/16 A2983 RMK AO2 T03540166
Observed Flight Rules
Aug-15 @ 00:55 UTC
(12 minutes ago)
VFR
Wind Visibility
140° at 10 knots
 Gusting to 14 knots
10 miles
Clouds
  • Scattered at 7,500' AGL
Temperature Dewpoint
35°C / 95°F 17°C / 63°F
Humidity Altimeter Pressure
34% 29.83" Hg 1010 hPa